sensor_id;sensor_type;location;lat;lon;timestamp;P1;durP1;ratioP1;P2;durP2;ratioP2
12788;SDS011;6458;42.710;23.192;2024-01-30T00:04:10;6.20;;;5.60;;
12788;SDS011;6458;42.710;23.192;2024-01-30T00:06:37;5.63;;;5.13;;
12788;SDS011;6458;42.710;23.192;2024-01-30T00:09:05;6.88;;;5.70;;
12788;SDS011;6458;42.710;23.192;2024-01-30T00:11:34;6.30;;;5.45;;
12788;SDS011;6458;42.710;23.192;2024-01-30T00:14:01;5.38;;;4.90;;
12788;SDS011;6458;42.710;23.192;2024-01-30T00:16:28;6.05;;;5.45;;
12788;SDS011;6458;42.710;23.192;2024-01-30T00:18:55;5.82;;;5.32;;
12788;SDS011;6458;42.710;23.192;2024-01-30T00:21:22;5.70;;;5.00;;
12788;SDS011;6458;42.710;23.192;2024-01-30T00:23:49;5.90;;;5.30;;
12788;SDS011;6458;42.710;23.192;2024-01-30T00:26:18;6.13;;;5.57;;
12788;SDS011;6458;42.710;23.192;2024-01-30T00:28:45;5.68;;;5.15;;
12788;SDS011;6458;42.710;23.192;2024-01-30T00:31:12;5.72;;;5.22;;
12788;SDS011;6458;42.710;23.192;2024-01-30T00:33:40;5.75;;;5.05;;
12788;SDS011;6458;42.710;23.192;2024-01-30T00:36:07;5.97;;;5.40;;
12788;SDS011;6458;42.710;23.192;2024-01-30T00:38:35;5.63;;;5.03;;
12788;SDS011;6458;42.710;23.192;2024-01-30T00:41:02;5.80;;;5.30;;
12788;SDS011;6458;42.710;23.192;2024-01-30T00:43:31;6.30;;;5.15;;
12788;SDS011;6458;42.710;23.192;2024-01-30T00:45:58;7.18;;;5.57;;
12788;SDS011;6458;42.710;23.192;2024-01-30T00:48:25;6.10;;;5.40;;
12788;SDS011;6458;42.710;23.192;2024-01-30T00:50:52;6.68;;;5.45;;
12788;SDS011;6458;42.710;23.192;2024-01-30T00:53:19;7.35;;;5.78;;
12788;SDS011;6458;42.710;23.192;2024-01-30T00:55:46;6.20;;;5.60;;
12788;SDS011;6458;42.710;23.192;2024-01-30T00:58:13;6.53;;;5.78;;
12788;SDS011;6458;42.710;23.192;2024-01-30T01:00:42;5.80;;;5.18;;
12788;SDS011;6458;42.710;23.192;2024-01-30T01:03:09;5.63;;;5.13;;
12788;SDS011;6458;42.710;23.192;2024-01-30T01:05:36;5.82;;;5.22;;
12788;SDS011;6458;42.710;23.192;2024-01-30T01:08:03;5.55;;;5.00;;
12788;SDS011;6458;42.710;23.192;2024-01-30T01:10:30;6.60;;;5.57;;
12788;SDS011;6458;42.710;23.192;2024-01-30T01:12:57;5.43;;;4.95;;
12788;SDS011;6458;42.710;23.192;2024-01-30T01:15:24;6.10;;;5.50;;
12788;SDS011;6458;42.710;23.192;2024-01-30T01:17:53;5.93;;;5.32;;
12788;SDS011;6458;42.710;23.192;2024-01-30T01:20:20;9.63;;;5.03;;
12788;SDS011;6458;42.710;23.192;2024-01-30T01:22:47;5.35;;;4.95;;
12788;SDS011;6458;42.710;23.192;2024-01-30T01:25:14;4.47;;;4.18;;
12788;SDS011;6458;42.710;23.192;2024-01-30T01:27:41;5.88;;;5.35;;
12788;SDS011;6458;42.710;23.192;2024-01-30T01:30:10;5.43;;;4.88;;
12788;SDS011;6458;42.710;23.192;2024-01-30T01:32:43;4.88;;;4.47;;
12788;SDS011;6458;42.710;23.192;2024-01-30T01:35:17;6.20;;;5.18;;
12788;SDS011;6458;42.710;23.192;2024-01-30T01:37:44;5.82;;;4.85;;
12788;SDS011;6458;42.710;23.192;2024-01-30T01:40:19;6.57;;;5.00;;
12788;SDS011;6458;42.710;23.192;2024-01-30T01:42:47;5.90;;;5.30;;
12788;SDS011;6458;42.710;23.192;2024-01-30T01:45:14;6.85;;;5.45;;
12788;SDS011;6458;42.710;23.192;2024-01-30T01:47:41;5.90;;;5.28;;
12788;SDS011;6458;42.710;23.192;2024-01-30T01:50:10;5.50;;;5.05;;
12788;SDS011;6458;42.710;23.192;2024-01-30T01:52:39;6.47;;;5.75;;
12788;SDS011;6458;42.710;23.192;2024-01-30T01:55:07;6.65;;;5.88;;
12788;SDS011;6458;42.710;23.192;2024-01-30T01:57:35;5.90;;;5.30;;
12788;SDS011;6458;42.710;23.192;2024-01-30T02:00:02;6.15;;;5.55;;
12788;SDS011;6458;42.710;23.192;2024-01-30T02:02:30;6.85;;;5.72;;
12788;SDS011;6458;42.710;23.192;2024-01-30T02:04:58;6.72;;;6.13;;
12788;SDS011;6458;42.710;23.192;2024-01-30T02:07:25;6.07;;;5.57;;
12788;SDS011;6458;42.710;23.192;2024-01-30T02:10:03;8.38;;;5.53;;
12788;SDS011;6458;42.710;23.192;2024-01-30T02:12:32;6.38;;;5.78;;
12788;SDS011;6458;42.710;23.192;2024-01-30T02:14:59;8.15;;;5.82;;
12788;SDS011;6458;42.710;23.192;2024-01-30T02:17:26;7.15;;;5.80;;
12788;SDS011;6458;42.710;23.192;2024-01-30T02:19:53;4.90;;;3.85;;
12788;SDS011;6458;42.710;23.192;2024-01-30T02:22:22;4.40;;;3.35;;
12788;SDS011;6458;42.710;23.192;2024-01-30T02:24:49;4.18;;;3.80;;
12788;SDS011;6458;42.710;23.192;2024-01-30T02:27:16;3.47;;;3.30;;
12788;SDS011;6458;42.710;23.192;2024-01-30T02:29:43;6.20;;;5.60;;
12788;SDS011;6458;42.710;23.192;2024-01-30T02:32:10;6.35;;;5.75;;
12788;SDS011;6458;42.710;23.192;2024-01-30T02:34:37;5.53;;;5.00;;
12788;SDS011;6458;42.710;23.192;2024-01-30T02:37:04;5.43;;;5.03;;
12788;SDS011;6458;42.710;23.192;2024-01-30T02:39:35;6.10;;;5.50;;
12788;SDS011;6458;42.710;23.192;2024-01-30T02:42:02;5.03;;;4.63;;
12788;SDS011;6458;42.710;23.192;2024-01-30T02:44:29;5.45;;;4.95;;
12788;SDS011;6458;42.710;23.192;2024-01-30T02:46:56;4.68;;;4.28;;
12788;SDS011;6458;42.710;23.192;2024-01-30T02:49:23;5.28;;;4.80;;
12788;SDS011;6458;42.710;23.192;2024-01-30T02:51:50;4.60;;;4.20;;
12788;SDS011;6458;42.710;23.192;2024-01-30T02:54:17;5.53;;;5.07;;
12788;SDS011;6458;42.710;23.192;2024-01-30T02:56:46;6.70;;;5.07;;
12788;SDS011;6458;42.710;23.192;2024-01-30T02:59:13;4.93;;;4.43;;
12788;SDS011;6458;42.710;23.192;2024-01-30T03:01:43;5.80;;;5.20;;
12788;SDS011;6458;42.710;23.192;2024-01-30T03:04:11;4.80;;;4.40;;
12788;SDS011;6458;42.710;23.192;2024-01-30T03:06:38;6.07;;;5.50;;
12788;SDS011;6458;42.710;23.192;2024-01-30T03:09:08;4.68;;;4.28;;
12788;SDS011;6458;42.710;23.192;2024-01-30T03:11:34;4.88;;;4.38;;
12788;SDS011;6458;42.710;23.192;2024-01-30T03:14:03;6.55;;;4.80;;
12788;SDS011;6458;42.710;23.192;2024-01-30T03:16:30;4.88;;;4.43;;
12788;SDS011;6458;42.710;23.192;2024-01-30T03:18:57;4.93;;;4.53;;
12788;SDS011;6458;42.710;23.192;2024-01-30T03:21:26;4.88;;;4.47;;
12788;SDS011;6458;42.710;23.192;2024-01-30T03:23:53;4.93;;;4.53;;
12788;SDS011;6458;42.710;23.192;2024-01-30T03:26:21;5.35;;;4.55;;
12788;SDS011;6458;42.710;23.192;2024-01-30T03:28:48;4.30;;;4.00;;
12788;SDS011;6458;42.710;23.192;2024-01-30T03:31:20;3.95;;;3.65;;
12788;SDS011;6458;42.710;23.192;2024-01-30T03:33:47;4.07;;;3.78;;
12788;SDS011;6458;42.710;23.192;2024-01-30T03:36:15;4.82;;;4.43;;
12788;SDS011;6458;42.710;23.192;2024-01-30T03:38:42;4.75;;;4.28;;
12788;SDS011;6458;42.710;23.192;2024-01-30T03:41:09;3.97;;;3.70;;
12788;SDS011;6458;42.710;23.192;2024-01-30T03:43:36;4.45;;;4.05;;
12788;SDS011;6458;42.710;23.192;2024-01-30T03:46:03;4.47;;;4.20;;
12788;SDS011;6458;42.710;23.192;2024-01-30T03:48:31;4.40;;;4.00;;
12788;SDS011;6458;42.710;23.192;2024-01-30T03:50:58;3.97;;;3.75;;
12788;SDS011;6458;42.710;23.192;2024-01-30T03:53:25;4.25;;;3.85;;
12788;SDS011;6458;42.710;23.192;2024-01-30T03:55:52;3.70;;;3.50;;
12788;SDS011;6458;42.710;23.192;2024-01-30T03:58:19;3.47;;;3.17;;
12788;SDS011;6458;42.710;23.192;2024-01-30T04:00:49;4.15;;;2.33;;
12788;SDS011;6458;42.710;23.192;2024-01-30T04:03:16;2.22;;;2.13;;
12788;SDS011;6458;42.710;23.192;2024-01-30T04:05:45;2.65;;;2.22;;
12788;SDS011;6458;42.710;23.192;2024-01-30T04:08:12;2.58;;;2.40;;
12788;SDS011;6458;42.710;23.192;2024-01-30T04:10:40;2.83;;;2.72;;
12788;SDS011;6458;42.710;23.192;2024-01-30T04:13:07;3.42;;;3.15;;
12788;SDS011;6458;42.710;23.192;2024-01-30T04:15:34;3.42;;;3.22;;
12788;SDS011;6458;42.710;23.192;2024-01-30T04:18:01;3.17;;;3.08;;
12788;SDS011;6458;42.710;23.192;2024-01-30T04:20:28;2.67;;;2.58;;
12788;SDS011;6458;42.710;23.192;2024-01-30T04:22:57;2.47;;;2.38;;
12788;SDS011;6458;42.710;23.192;2024-01-30T04:25:24;2.33;;;2.15;;
12788;SDS011;6458;42.710;23.192;2024-01-30T04:27:51;1.92;;;1.90;;
12788;SDS011;6458;42.710;23.192;2024-01-30T04:30:18;3.05;;;2.85;;
12788;SDS011;6458;42.710;23.192;2024-01-30T04:32:45;2.45;;;2.25;;
12788;SDS011;6458;42.710;23.192;2024-01-30T04:35:11;2.53;;;2.42;;
12788;SDS011;6458;42.710;23.192;2024-01-30T04:37:38;2.88;;;2.78;;
12788;SDS011;6458;42.710;23.192;2024-01-30T04:40:09;2.75;;;2.50;;
12788;SDS011;6458;42.710;23.192;2024-01-30T04:42:36;2.92;;;2.75;;
12788;SDS011;6458;42.710;23.192;2024-01-30T04:45:03;3.05;;;2.95;;
12788;SDS011;6458;42.710;23.192;2024-01-30T04:47:31;2.90;;;2.70;;
12788;SDS011;6458;42.710;23.192;2024-01-30T04:49:58;3.35;;;3.13;;
12788;SDS011;6458;42.710;23.192;2024-01-30T04:52:25;5.03;;;3.38;;
12788;SDS011;6458;42.710;23.192;2024-01-30T04:54:52;5.45;;;3.05;;
12788;SDS011;6458;42.710;23.192;2024-01-30T04:57:20;3.35;;;3.15;;
12788;SDS011;6458;42.710;23.192;2024-01-30T04:59:47;2.95;;;2.85;;
12788;SDS011;6458;42.710;23.192;2024-01-30T05:02:15;3.00;;;2.80;;
12788;SDS011;6458;42.710;23.192;2024-01-30T05:04:42;2.85;;;2.72;;
12788;SDS011;6458;42.710;23.192;2024-01-30T05:07:09;3.42;;;3.13;;
12788;SDS011;6458;42.710;23.192;2024-01-30T05:09:39;3.17;;;2.97;;
12788;SDS011;6458;42.710;23.192;2024-01-30T05:12:06;3.20;;;2.95;;
12788;SDS011;6458;42.710;23.192;2024-01-30T05:14:38;3.60;;;3.30;;
12788;SDS011;6458;42.710;23.192;2024-01-30T05:17:05;3.45;;;3.20;;
12788;SDS011;6458;42.710;23.192;2024-01-30T05:19:33;3.08;;;2.75;;
12788;SDS011;6458;42.710;23.192;2024-01-30T05:21:59;4.13;;;2.97;;
12788;SDS011;6458;42.710;23.192;2024-01-30T05:30:35;2.95;;;2.75;;
12788;SDS011;6458;42.710;23.192;2024-01-30T05:33:02;4.15;;;3.85;;
12788;SDS011;6458;42.710;23.192;2024-01-30T05:35:29;4.82;;;4.28;;
12788;SDS011;6458;42.710;23.192;2024-01-30T05:41:19;4.88;;;4.47;;
12788;SDS011;6458;42.710;23.192;2024-01-30T05:43:47;6.57;;;5.60;;
12788;SDS011;6458;42.710;23.192;2024-01-30T05:46:15;5.10;;;3.75;;
12788;SDS011;6458;42.710;23.192;2024-01-30T05:48:42;6.57;;;4.72;;
12788;SDS011;6458;42.710;23.192;2024-01-30T05:51:09;8.57;;;5.68;;
12788;SDS011;6458;42.710;23.192;2024-01-30T05:53:36;4.38;;;3.97;;
12788;SDS011;6458;42.710;23.192;2024-01-30T05:56:03;4.80;;;4.40;;
12788;SDS011;6458;42.710;23.192;2024-01-30T05:58:34;5.57;;;5.07;;
12788;SDS011;6458;42.710;23.192;2024-01-30T06:04:25;4.05;;;3.75;;
12788;SDS011;6458;42.710;23.192;2024-01-30T06:06:52;5.28;;;4.88;;
12788;SDS011;6458;42.710;23.192;2024-01-30T06:09:19;4.18;;;3.88;;
12788;SDS011;6458;42.710;23.192;2024-01-30T06:11:46;4.65;;;3.65;;
12788;SDS011;6458;42.710;23.192;2024-01-30T06:14:13;4.80;;;4.32;;
12788;SDS011;6458;42.710;23.192;2024-01-30T06:16:40;4.28;;;3.75;;
12788;SDS011;6458;42.710;23.192;2024-01-30T06:22:32;8.25;;;4.45;;
12788;SDS011;6458;42.710;23.192;2024-01-30T06:24:59;3.72;;;3.42;;
12788;SDS011;6458;42.710;23.192;2024-01-30T06:27:26;6.20;;;4.78;;
12788;SDS011;6458;42.710;23.192;2024-01-30T06:29:53;5.47;;;3.85;;
12788;SDS011;6458;42.710;23.192;2024-01-30T06:32:19;2.65;;;2.55;;
12788;SDS011;6458;42.710;23.192;2024-01-30T06:34:47;2.50;;;2.40;;
12788;SDS011;6458;42.710;23.192;2024-01-30T06:37:14;2.63;;;2.50;;
12788;SDS011;6458;42.710;23.192;2024-01-30T06:45:40;2.97;;;2.78;;
12788;SDS011;6458;42.710;23.192;2024-01-30T06:50:46;5.45;;;3.15;;
12788;SDS011;6458;42.710;23.192;2024-01-30T06:53:15;3.03;;;2.85;;
12788;SDS011;6458;42.710;23.192;2024-01-30T06:55:44;3.42;;;2.75;;
12788;SDS011;6458;42.710;23.192;2024-01-30T06:58:12;4.50;;;3.33;;
12788;SDS011;6458;42.710;23.192;2024-01-30T07:00:39;4.25;;;3.67;;
12788;SDS011;6458;42.710;23.192;2024-01-30T07:03:06;3.22;;;3.10;;
12788;SDS011;6458;42.710;23.192;2024-01-30T07:05:33;3.10;;;2.90;;
12788;SDS011;6458;42.710;23.192;2024-01-30T07:08:00;3.10;;;3.00;;
12788;SDS011;6458;42.710;23.192;2024-01-30T07:10:27;2.67;;;2.50;;
12788;SDS011;6458;42.710;23.192;2024-01-30T07:12:55;6.38;;;3.67;;
12788;SDS011;6458;42.710;23.192;2024-01-30T07:15:22;3.28;;;2.97;;
12788;SDS011;6458;42.710;23.192;2024-01-30T07:20:27;3.97;;;3.50;;
12788;SDS011;6458;42.710;23.192;2024-01-30T07:22:55;4.22;;;3.00;;
12788;SDS011;6458;42.710;23.192;2024-01-30T07:25:22;3.00;;;2.80;;
12788;SDS011;6458;42.710;23.192;2024-01-30T07:27:51;4.25;;;3.28;;
12788;SDS011;6458;42.710;23.192;2024-01-30T07:30:20;5.30;;;2.53;;
12788;SDS011;6458;42.710;23.192;2024-01-30T07:32:48;3.92;;;3.03;;
12788;SDS011;6458;42.710;23.192;2024-01-30T07:35:15;3.45;;;3.15;;
12788;SDS011;6458;42.710;23.192;2024-01-30T07:37:42;3.28;;;2.97;;
12788;SDS011;6458;42.710;23.192;2024-01-30T07:40:09;5.28;;;4.30;;
12788;SDS011;6458;42.710;23.192;2024-01-30T07:42:36;3.00;;;2.75;;
12788;SDS011;6458;42.710;23.192;2024-01-30T07:45:03;2.90;;;2.75;;
12788;SDS011;6458;42.710;23.192;2024-01-30T07:47:32;3.25;;;2.95;;
12788;SDS011;6458;42.710;23.192;2024-01-30T07:49:59;2.53;;;2.33;;
12788;SDS011;6458;42.710;23.192;2024-01-30T07:52:26;3.65;;;3.33;;
12788;SDS011;6458;42.710;23.192;2024-01-30T07:54:53;2.50;;;2.40;;
12788;SDS011;6458;42.710;23.192;2024-01-30T07:57:21;2.42;;;2.33;;
12788;SDS011;6458;42.710;23.192;2024-01-30T07:59:48;2.58;;;2.42;;
12788;SDS011;6458;42.710;23.192;2024-01-30T08:02:15;2.80;;;2.60;;
12788;SDS011;6458;42.710;23.192;2024-01-30T08:04:44;2.50;;;2.45;;
12788;SDS011;6458;42.710;23.192;2024-01-30T08:07:13;2.75;;;2.45;;
12788;SDS011;6458;42.710;23.192;2024-01-30T08:09:42;3.00;;;2.70;;
12788;SDS011;6458;42.710;23.192;2024-01-30T08:12:11;2.97;;;2.72;;
12788;SDS011;6458;42.710;23.192;2024-01-30T08:14:38;3.07;;;2.73;;
12788;SDS011;6458;42.710;23.192;2024-01-30T08:22:41;2.47;;;2.28;;
12788;SDS011;6458;42.710;23.192;2024-01-30T08:25:08;2.60;;;2.50;;
12788;SDS011;6458;42.710;23.192;2024-01-30T08:27:36;2.53;;;2.43;;
12788;SDS011;6458;42.710;23.192;2024-01-30T08:30:03;4.00;;;2.60;;
12788;SDS011;6458;42.710;23.192;2024-01-30T08:32:32;2.43;;;2.33;;
12788;SDS011;6458;42.710;23.192;2024-01-30T08:34:59;2.63;;;2.53;;
12788;SDS011;6458;42.710;23.192;2024-01-30T08:37:30;3.23;;;3.03;;
12788;SDS011;6458;42.710;23.192;2024-01-30T08:39:57;2.07;;;2.07;;
12788;SDS011;6458;42.710;23.192;2024-01-30T08:42:31;3.33;;;3.03;;
12788;SDS011;6458;42.710;23.192;2024-01-30T08:44:59;2.20;;;2.10;;
12788;SDS011;6458;42.710;23.192;2024-01-30T08:47:26;2.73;;;2.53;;
12788;SDS011;6458;42.710;23.192;2024-01-30T08:49:53;5.20;;;4.17;;
12788;SDS011;6458;42.710;23.192;2024-01-30T08:52:20;3.17;;;2.90;;
12788;SDS011;6458;42.710;23.192;2024-01-30T08:54:48;2.73;;;2.60;;
12788;SDS011;6458;42.710;23.192;2024-01-30T08:57:15;5.97;;;3.90;;
12788;SDS011;6458;42.710;23.192;2024-01-30T08:59:42;3.00;;;2.90;;
12788;SDS011;6458;42.710;23.192;2024-01-30T09:02:23;3.10;;;2.90;;
12788;SDS011;6458;42.710;23.192;2024-01-30T09:04:50;2.87;;;2.77;;
12788;SDS011;6458;42.710;23.192;2024-01-30T09:07:19;2.47;;;2.27;;
12788;SDS011;6458;42.710;23.192;2024-01-30T09:09:48;2.77;;;2.60;;
12788;SDS011;6458;42.710;23.192;2024-01-30T09:12:16;2.77;;;2.67;;
12788;SDS011;6458;42.710;23.192;2024-01-30T09:14:43;2.77;;;2.60;;
12788;SDS011;6458;42.710;23.192;2024-01-30T09:17:09;2.70;;;2.47;;
12788;SDS011;6458;42.710;23.192;2024-01-30T09:19:37;2.73;;;2.57;;
12788;SDS011;6458;42.710;23.192;2024-01-30T09:22:06;2.10;;;2.10;;
12788;SDS011;6458;42.710;23.192;2024-01-30T09:24:33;2.23;;;2.13;;
12788;SDS011;6458;42.710;23.192;2024-01-30T09:27:02;2.97;;;2.80;;
12788;SDS011;6458;42.710;23.192;2024-01-30T09:29:29;3.87;;;3.57;;
12788;SDS011;6458;42.710;23.192;2024-01-30T09:31:59;3.47;;;3.17;;
12788;SDS011;6458;42.710;23.192;2024-01-30T09:34:26;2.20;;;2.20;;
12788;SDS011;6458;42.710;23.192;2024-01-30T09:36:53;2.70;;;2.60;;
12788;SDS011;6458;42.710;23.192;2024-01-30T09:39:20;2.77;;;2.60;;
12788;SDS011;6458;42.710;23.192;2024-01-30T09:41:48;2.67;;;2.53;;
12788;SDS011;6458;42.710;23.192;2024-01-30T09:44:17;3.10;;;2.80;;
12788;SDS011;6458;42.710;23.192;2024-01-30T09:46:46;3.43;;;3.13;;
12788;SDS011;6458;42.710;23.192;2024-01-30T09:49:14;2.53;;;2.43;;
12788;SDS011;6458;42.710;23.192;2024-01-30T09:51:43;2.50;;;2.40;;
12788;SDS011;6458;42.710;23.192;2024-01-30T09:54:11;2.47;;;2.37;;
12788;SDS011;6458;42.710;23.192;2024-01-30T09:56:40;2.67;;;2.57;;
12788;SDS011;6458;42.710;23.192;2024-01-30T09:59:07;2.90;;;2.70;;
12788;SDS011;6458;42.710;23.192;2024-01-30T10:01:36;2.93;;;2.73;;
12788;SDS011;6458;42.710;23.192;2024-01-30T10:04:04;2.97;;;2.87;;
12788;SDS011;6458;42.710;23.192;2024-01-30T10:06:31;3.03;;;2.93;;
12788;SDS011;6458;42.710;23.192;2024-01-30T10:09:01;2.63;;;2.53;;
12788;SDS011;6458;42.710;23.192;2024-01-30T10:11:29;2.60;;;2.40;;
12788;SDS011;6458;42.710;23.192;2024-01-30T10:13:57;2.10;;;2.00;;
12788;SDS011;6458;42.710;23.192;2024-01-30T10:16:24;2.83;;;2.73;;
12788;SDS011;6458;42.710;23.192;2024-01-30T10:18:52;2.23;;;2.23;;
12788;SDS011;6458;42.710;23.192;2024-01-30T10:21:21;2.40;;;2.30;;
12788;SDS011;6458;42.710;23.192;2024-01-30T10:23:48;2.57;;;2.27;;
12788;SDS011;6458;42.710;23.192;2024-01-30T10:26:16;3.77;;;2.60;;
12788;SDS011;6458;42.710;23.192;2024-01-30T10:28:43;2.60;;;2.40;;
12788;SDS011;6458;42.710;23.192;2024-01-30T10:31:10;2.50;;;2.40;;
12788;SDS011;6458;42.710;23.192;2024-01-30T10:33:37;2.30;;;2.20;;
12788;SDS011;6458;42.710;23.192;2024-01-30T10:36:06;7.47;;;2.40;;
12788;SDS011;6458;42.710;23.192;2024-01-30T10:38:33;2.77;;;2.60;;
12788;SDS011;6458;42.710;23.192;2024-01-30T10:41:01;2.87;;;2.33;;
12788;SDS011;6458;42.710;23.192;2024-01-30T10:43:30;2.30;;;2.20;;
12788;SDS011;6458;42.710;23.192;2024-01-30T10:46:01;2.23;;;2.10;;
12788;SDS011;6458;42.710;23.192;2024-01-30T10:48:46;2.70;;;2.50;;
12788;SDS011;6458;42.710;23.192;2024-01-30T10:51:24;2.57;;;2.47;;
12788;SDS011;6458;42.710;23.192;2024-01-30T10:53:53;2.63;;;2.23;;
12788;SDS011;6458;42.710;23.192;2024-01-30T10:56:21;2.13;;;2.03;;
12788;SDS011;6458;42.710;23.192;2024-01-30T10:58:49;2.10;;;2.00;;
12788;SDS011;6458;42.710;23.192;2024-01-30T11:01:17;3.17;;;2.97;;
12788;SDS011;6458;42.710;23.192;2024-01-30T11:03:49;2.83;;;2.70;;
12788;SDS011;6458;42.710;23.192;2024-01-30T11:06:17;1.90;;;1.90;;
12788;SDS011;6458;42.710;23.192;2024-01-30T11:08:46;2.77;;;2.67;;
12788;SDS011;6458;42.710;23.192;2024-01-30T11:11:13;2.13;;;2.10;;
12788;SDS011;6458;42.710;23.192;2024-01-30T11:13:43;2.10;;;2.10;;
12788;SDS011;6458;42.710;23.192;2024-01-30T11:16:10;2.30;;;2.20;;
12788;SDS011;6458;42.710;23.192;2024-01-30T11:18:37;2.30;;;2.20;;
12788;SDS011;6458;42.710;23.192;2024-01-30T11:21:05;2.87;;;2.57;;
12788;SDS011;6458;42.710;23.192;2024-01-30T11:23:33;1.90;;;1.90;;
12788;SDS011;6458;42.710;23.192;2024-01-30T11:26:05;2.33;;;2.20;;
12788;SDS011;6458;42.710;23.192;2024-01-30T11:28:37;1.93;;;1.93;;
12788;SDS011;6458;42.710;23.192;2024-01-30T11:31:04;2.47;;;2.37;;
12788;SDS011;6458;42.710;23.192;2024-01-30T11:33:33;2.40;;;2.20;;
12788;SDS011;6458;42.710;23.192;2024-01-30T11:36:00;3.10;;;3.00;;
12788;SDS011;6458;42.710;23.192;2024-01-30T11:38:28;3.23;;;3.03;;
12788;SDS011;6458;42.710;23.192;2024-01-30T11:40:55;3.23;;;3.03;;
12788;SDS011;6458;42.710;23.192;2024-01-30T11:43:24;2.87;;;2.57;;
12788;SDS011;6458;42.710;23.192;2024-01-30T11:45:51;2.57;;;2.47;;
12788;SDS011;6458;42.710;23.192;2024-01-30T11:48:18;6.87;;;4.23;;
12788;SDS011;6458;42.710;23.192;2024-01-30T11:50:46;2.40;;;2.30;;
12788;SDS011;6458;42.710;23.192;2024-01-30T11:53:13;3.00;;;2.80;;
12788;SDS011;6458;42.710;23.192;2024-01-30T11:55:40;3.60;;;3.30;;
12788;SDS011;6458;42.710;23.192;2024-01-30T11:58:08;2.93;;;2.73;;
12788;SDS011;6458;42.710;23.192;2024-01-30T12:00:37;3.13;;;2.90;;
12788;SDS011;6458;42.710;23.192;2024-01-30T12:03:04;3.47;;;3.27;;
12788;SDS011;6458;42.710;23.192;2024-01-30T12:05:32;2.97;;;2.77;;
12788;SDS011;6458;42.710;23.192;2024-01-30T12:07:59;3.27;;;3.13;;
12788;SDS011;6458;42.710;23.192;2024-01-30T12:10:26;2.73;;;2.53;;
12788;SDS011;6458;42.710;23.192;2024-01-30T12:12:53;3.83;;;3.47;;
12788;SDS011;6458;42.710;23.192;2024-01-30T12:15:21;2.37;;;2.27;;
12788;SDS011;6458;42.710;23.192;2024-01-30T12:17:50;3.20;;;3.00;;
12788;SDS011;6458;42.710;23.192;2024-01-30T12:20:18;2.80;;;2.70;;
12788;SDS011;6458;42.710;23.192;2024-01-30T12:22:46;3.93;;;3.70;;
12788;SDS011;6458;42.710;23.192;2024-01-30T12:25:14;3.13;;;2.93;;
12788;SDS011;6458;42.710;23.192;2024-01-30T12:27:43;3.47;;;3.27;;
12788;SDS011;6458;42.710;23.192;2024-01-30T12:30:11;3.60;;;3.40;;
12788;SDS011;6458;42.710;23.192;2024-01-30T12:32:40;4.07;;;3.67;;
12788;SDS011;6458;42.710;23.192;2024-01-30T12:35:10;3.17;;;2.97;;
12788;SDS011;6458;42.710;23.192;2024-01-30T12:37:37;3.03;;;2.93;;
12788;SDS011;6458;42.710;23.192;2024-01-30T12:40:05;3.03;;;2.60;;
12788;SDS011;6458;42.710;23.192;2024-01-30T12:42:34;5.47;;;3.50;;
12788;SDS011;6458;42.710;23.192;2024-01-30T12:45:01;3.47;;;3.23;;
12788;SDS011;6458;42.710;23.192;2024-01-30T12:47:32;3.20;;;2.87;;
12788;SDS011;6458;42.710;23.192;2024-01-30T12:49:59;2.43;;;2.33;;
12788;SDS011;6458;42.710;23.192;2024-01-30T12:52:28;3.10;;;2.77;;
12788;SDS011;6458;42.710;23.192;2024-01-30T12:54:55;2.77;;;2.67;;
12788;SDS011;6458;42.710;23.192;2024-01-30T12:57:22;3.63;;;3.33;;
12788;SDS011;6458;42.710;23.192;2024-01-30T13:00:01;3.07;;;2.87;;
12788;SDS011;6458;42.710;23.192;2024-01-30T13:02:29;3.73;;;3.43;;
12788;SDS011;6458;42.710;23.192;2024-01-30T13:05:00;3.67;;;2.90;;
12788;SDS011;6458;42.710;23.192;2024-01-30T13:07:28;2.93;;;2.73;;
12788;SDS011;6458;42.710;23.192;2024-01-30T13:09:56;3.93;;;3.40;;
12788;SDS011;6458;42.710;23.192;2024-01-30T13:12:27;3.10;;;2.90;;
12788;SDS011;6458;42.710;23.192;2024-01-30T13:14:57;4.30;;;2.80;;
12788;SDS011;6458;42.710;23.192;2024-01-30T13:17:26;3.70;;;3.43;;
12788;SDS011;6458;42.710;23.192;2024-01-30T13:19:59;3.27;;;2.97;;
12788;SDS011;6458;42.710;23.192;2024-01-30T13:22:25;3.07;;;2.97;;
12788;SDS011;6458;42.710;23.192;2024-01-30T13:24:54;3.23;;;2.90;;
12788;SDS011;6458;42.710;23.192;2024-01-30T13:27:23;3.43;;;3.23;;
12788;SDS011;6458;42.710;23.192;2024-01-30T13:29:50;4.47;;;3.70;;
12788;SDS011;6458;42.710;23.192;2024-01-30T13:32:18;2.70;;;2.50;;
12788;SDS011;6458;42.710;23.192;2024-01-30T13:34:44;3.50;;;3.17;;
12788;SDS011;6458;42.710;23.192;2024-01-30T13:37:11;3.20;;;3.00;;
12788;SDS011;6458;42.710;23.192;2024-01-30T13:39:37;2.90;;;2.73;;
12788;SDS011;6458;42.710;23.192;2024-01-30T13:42:06;3.53;;;3.30;;
12788;SDS011;6458;42.710;23.192;2024-01-30T13:44:34;2.97;;;2.67;;
12788;SDS011;6458;42.710;23.192;2024-01-30T13:47:02;4.00;;;3.70;;
12788;SDS011;6458;42.710;23.192;2024-01-30T13:49:29;3.73;;;3.43;;
12788;SDS011;6458;42.710;23.192;2024-01-30T13:51:56;3.30;;;3.10;;
12788;SDS011;6458;42.710;23.192;2024-01-30T13:54:23;3.17;;;2.87;;
12788;SDS011;6458;42.710;23.192;2024-01-30T13:56:50;5.07;;;2.57;;
12788;SDS011;6458;42.710;23.192;2024-01-30T13:59:19;3.90;;;3.60;;
12788;SDS011;6458;42.710;23.192;2024-01-30T14:01:49;3.67;;;3.37;;
12788;SDS011;6458;42.710;23.192;2024-01-30T14:04:18;3.17;;;2.93;;
12788;SDS011;6458;42.710;23.192;2024-01-30T14:06:45;3.20;;;3.00;;
12788;SDS011;6458;42.710;23.192;2024-01-30T14:09:12;2.63;;;2.53;;
12788;SDS011;6458;42.710;23.192;2024-01-30T14:11:40;2.67;;;2.57;;
12788;SDS011;6458;42.710;23.192;2024-01-30T14:14:08;3.27;;;3.07;;
12788;SDS011;6458;42.710;23.192;2024-01-30T14:16:37;3.37;;;3.17;;
12788;SDS011;6458;42.710;23.192;2024-01-30T14:19:04;3.13;;;2.93;;
12788;SDS011;6458;42.710;23.192;2024-01-30T14:21:31;2.97;;;2.77;;
12788;SDS011;6458;42.710;23.192;2024-01-30T14:23:58;3.87;;;3.60;;
12788;SDS011;6458;42.710;23.192;2024-01-30T14:26:25;4.60;;;3.47;;
12788;SDS011;6458;42.710;23.192;2024-01-30T14:28:52;6.10;;;4.33;;
12788;SDS011;6458;42.710;23.192;2024-01-30T14:31:20;6.27;;;4.17;;
12788;SDS011;6458;42.710;23.192;2024-01-30T14:33:50;3.50;;;3.30;;
12788;SDS011;6458;42.710;23.192;2024-01-30T14:36:17;3.33;;;3.13;;
12788;SDS011;6458;42.710;23.192;2024-01-30T14:38:45;3.70;;;3.43;;
12788;SDS011;6458;42.710;23.192;2024-01-30T14:41:12;3.30;;;3.03;;
12788;SDS011;6458;42.710;23.192;2024-01-30T14:43:39;4.40;;;3.77;;
12788;SDS011;6458;42.710;23.192;2024-01-30T14:46:06;3.50;;;3.30;;
12788;SDS011;6458;42.710;23.192;2024-01-30T14:48:33;4.93;;;4.43;;
12788;SDS011;6458;42.710;23.192;2024-01-30T14:51:02;3.90;;;3.30;;
12788;SDS011;6458;42.710;23.192;2024-01-30T14:53:29;3.53;;;3.23;;
12788;SDS011;6458;42.710;23.192;2024-01-30T14:55:56;2.87;;;2.77;;
12788;SDS011;6458;42.710;23.192;2024-01-30T14:58:23;4.87;;;4.37;;
12788;SDS011;6458;42.710;23.192;2024-01-30T15:00:50;5.97;;;4.40;;
12788;SDS011;6458;42.710;23.192;2024-01-30T15:03:17;4.47;;;4.17;;
12788;SDS011;6458;42.710;23.192;2024-01-30T15:05:43;3.70;;;3.42;;
12788;SDS011;6458;42.710;23.192;2024-01-30T15:08:12;3.97;;;3.70;;
12788;SDS011;6458;42.710;23.192;2024-01-30T15:10:39;2.88;;;2.67;;
12788;SDS011;6458;42.710;23.192;2024-01-30T15:13:06;5.10;;;4.00;;
12788;SDS011;6458;42.710;23.192;2024-01-30T15:15:33;4.67;;;4.27;;
12788;SDS011;6458;42.710;23.192;2024-01-30T15:18:00;4.13;;;3.83;;
12788;SDS011;6458;42.710;23.192;2024-01-30T15:20:27;10.65;;;5.35;;
12788;SDS011;6458;42.710;23.192;2024-01-30T15:22:54;3.85;;;3.55;;
12788;SDS011;6458;42.710;23.192;2024-01-30T15:25:25;7.50;;;4.65;;
12788;SDS011;6458;42.710;23.192;2024-01-30T15:27:54;4.88;;;4.38;;